Time;durP1;ratioP1;P1;durP2;ratioP2;P2;SDS_P1;SDS_P2;PMS_P1;PMS_P2;Temp;Humidity;BMP_temperature;BMP_pressure;BME280_temperature;BME280_humidity;BME280_pressure;Samples;Min_cycle;Max_cycle;Signal;HPM_P1;HPM_P2
2023/04/20 00:01:03;;;;;;;8.30;5.67;;;8.60;99.90;;;;;;5079690;28;20538;-58
2023/04/20 00:03:31;;;;;;;12.87;5.60;;;8.50;99.90;;;;;;5079244;28;20474;-57
2023/04/20 00:06:00;;;;;;;8.80;5.23;;;8.50;99.90;;;;;;5079343;28;20457;-57
2023/04/20 00:08:27;;;;;;;6.53;5.03;;;8.60;99.90;;;;;;5079270;28;20880;-53
2023/04/20 00:10:54;;;;;;;7.40;5.80;;;8.60;99.90;;;;;;5079119;28;20492;-54
2023/04/20 00:13:21;;;;;;;6.10;4.47;;;8.60;99.90;;;;;;5078902;28;20450;-55
2023/04/20 00:15:49;;;;;;;7.47;5.07;;;8.60;99.90;;;;;;5078843;28;20500;-56
2023/04/20 00:18:16;;;;;;;7.07;5.00;;;8.60;99.90;;;;;;5078272;28;20486;-57
2023/04/20 00:20:43;;;;;;;6.90;4.63;;;8.60;99.90;;;;;;5078897;28;20517;-56
2023/04/20 00:23:10;;;;;;;12.00;5.53;;;8.60;99.90;;;;;;5078666;28;20449;-56
2023/04/20 00:25:37;;;;;;;7.07;4.50;;;8.50;99.90;;;;;;5079237;28;20557;-57
2023/04/20 00:28:04;;;;;;;8.50;4.97;;;8.50;99.90;;;;;;5086543;28;20463;-52
2023/04/20 00:30:31;;;;;;;13.33;5.30;;;8.50;99.90;;;;;;5082572;28;20962;-56
2023/04/20 00:32:59;;;;;;;10.67;5.77;;;8.50;99.90;;;;;;5078509;28;20460;-58
2023/04/20 00:35:26;;;;;;;5.03;4.07;;;8.50;99.90;;;;;;5079014;28;20456;-59
2023/04/20 00:37:53;;;;;;;8.03;4.57;;;8.50;99.90;;;;;;5078817;28;20569;-55
2023/04/20 00:40:20;;;;;;;7.43;4.93;;;8.40;99.90;;;;;;5078940;28;20446;-57
2023/04/20 00:42:47;;;;;;;8.07;4.60;;;8.50;99.90;;;;;;5078487;28;20466;-51
2023/04/20 00:45:14;;;;;;;4.93;3.83;;;8.50;99.90;;;;;;5078719;28;20970;-55
2023/04/20 00:47:41;;;;;;;5.70;4.23;;;8.50;99.90;;;;;;5078418;28;20454;-55
2023/04/20 00:50:11;;;;;;;11.00;5.23;;;8.50;99.90;;;;;;5078126;28;20461;-57
2023/04/20 00:52:38;;;;;;;8.87;3.83;;;8.50;99.90;;;;;;5078738;28;20478;-57
2023/04/20 00:55:06;;;;;;;7.13;4.53;;;8.40;99.90;;;;;;5078547;28;20978;-57
2023/04/20 00:57:33;;;;;;;5.93;4.07;;;8.50;99.90;;;;;;5078385;28;20510;-57
2023/04/20 01:00:01;;;;;;;5.60;4.40;;;8.40;99.90;;;;;;5078098;28;20514;-57
2023/04/20 01:02:28;;;;;;;6.90;4.20;;;8.40;99.90;;;;;;5078931;28;20442;-55
2023/04/20 01:04:55;;;;;;;8.33;5.67;;;8.50;99.90;;;;;;5078557;28;20533;-58
2023/04/20 01:07:25;;;;;;;5.17;4.17;;;8.50;99.90;;;;;;5077770;28;20446;-56
2023/04/20 01:09:52;;;;;;;7.47;4.10;;;8.40;99.90;;;;;;5077726;28;20456;-58
2023/04/20 01:12:18;;;;;;;8.17;4.60;;;8.40;99.90;;;;;;5078324;28;20431;-57
2023/04/20 01:14:45;;;;;;;7.70;5.53;;;8.40;99.90;;;;;;5077491;28;20540;-57
2023/04/20 01:17:13;;;;;;;7.50;4.77;;;8.30;99.90;;;;;;5078520;28;20553;-57
2023/04/20 01:19:41;;;;;;;6.13;4.50;;;8.40;99.90;;;;;;5077948;28;21013;-56
2023/04/20 01:22:08;;;;;;;6.33;4.30;;;8.40;99.90;;;;;;5077930;28;20569;-54
2023/04/20 01:24:36;;;;;;;6.40;5.10;;;8.40;99.90;;;;;;5078236;28;20442;-55
2023/04/20 01:27:05;;;;;;;6.37;4.47;;;8.30;99.90;;;;;;5078400;28;20476;-55
2023/04/20 01:29:32;;;;;;;9.57;5.60;;;8.20;99.90;;;;;;5078460;28;20550;-57
2023/04/20 01:31:59;;;;;;;7.30;6.20;;;8.10;99.90;;;;;;5078056;28;20448;-57
2023/04/20 01:34:26;;;;;;;8.10;5.30;;;8.10;99.90;;;;;;5078305;28;20452;-55
2023/04/20 01:36:53;;;;;;;9.63;5.00;;;8.20;99.90;;;;;;5078437;28;20482;-55
2023/04/20 01:39:20;;;;;;;7.63;4.53;;;8.20;99.90;;;;;;5077766;28;20489;-53
2023/04/20 01:41:48;;;;;;;8.93;5.17;;;8.20;99.90;;;;;;5078026;28;20450;-55
2023/04/20 01:44:15;;;;;;;6.83;5.83;;;8.20;99.90;;;;;;5078393;28;20557;-57
2023/04/20 01:46:42;;;;;;;8.17;5.23;;;8.20;99.90;;;;;;5078131;28;20526;-57
2023/04/20 01:49:09;;;;;;;5.63;4.30;;;8.20;99.90;;;;;;5077680;28;20509;-56
2023/04/20 01:51:36;;;;;;;9.37;5.27;;;8.20;99.90;;;;;;5077843;28;20450;-56
2023/04/20 01:54:04;;;;;;;6.77;4.97;;;8.10;99.90;;;;;;5078172;28;20442;-55
2023/04/20 01:56:31;;;;;;;10.70;4.73;;;8.10;99.90;;;;;;5078195;28;20481;-56
2023/04/20 01:58:59;;;;;;;10.20;5.43;;;8.10;99.90;;;;;;5077660;28;20478;-55
2023/04/20 02:01:26;;;;;;;6.30;4.90;;;8.00;99.90;;;;;;5077620;28;20978;-55
2023/04/20 02:03:52;;;;;;;9.83;6.67;;;8.00;99.90;;;;;;5077745;28;20529;-55
2023/04/20 02:06:19;;;;;;;8.97;6.20;;;8.00;99.90;;;;;;5077720;28;20498;-56
2023/04/20 02:08:46;;;;;;;9.97;6.10;;;8.00;99.90;;;;;;5077321;28;20475;-55
2023/04/20 02:11:13;;;;;;;9.20;6.07;;;8.00;99.90;;;;;;5078102;28;20461;-57
2023/04/20 02:13:40;;;;;;;8.90;5.73;;;8.00;99.90;;;;;;5077726;28;20521;-56
2023/04/20 02:16:08;;;;;;;11.87;6.17;;;8.10;99.90;;;;;;5077511;28;20783;-56
2023/04/20 02:18:36;;;;;;;7.93;5.80;;;8.10;99.90;;;;;;5077878;28;20490;-57
2023/04/20 02:21:03;;;;;;;14.10;5.73;;;8.10;99.90;;;;;;5077869;28;20488;-57
2023/04/20 02:23:30;;;;;;;7.63;5.47;;;8.10;99.90;;;;;;5077813;28;20470;-57
2023/04/20 02:25:57;;;;;;;10.33;6.47;;;8.20;99.90;;;;;;5077780;28;20533;-57
2023/04/20 02:28:23;;;;;;;13.63;7.27;;;8.20;99.90;;;;;;5080507;28;20477;-54
2023/04/20 02:30:50;;;;;;;10.17;5.37;;;8.20;99.90;;;;;;5080939;28;20427;-56
2023/04/20 02:33:19;;;;;;;7.93;5.53;;;8.20;99.90;;;;;;5081223;28;20454;-56
2023/04/20 02:35:47;;;;;;;11.13;6.17;;;8.10;99.90;;;;;;5081404;28;20450;-56
2023/04/20 02:38:14;;;;;;;12.83;7.43;;;8.10;99.90;;;;;;5081047;28;20564;-55
2023/04/20 02:40:41;;;;;;;11.70;6.90;;;8.10;99.90;;;;;;5081049;28;20470;-56
2023/04/20 02:43:08;;;;;;;10.80;7.40;;;8.20;99.90;;;;;;5081310;28;20438;-55
2023/04/20 02:45:36;;;;;;;7.73;6.30;;;8.20;99.90;;;;;;5080462;28;20458;-57
2023/04/20 02:48:04;;;;;;;10.43;6.73;;;8.20;99.90;;;;;;5080880;28;20434;-57
2023/04/20 02:50:33;;;;;;;13.00;8.33;;;8.20;99.90;;;;;;5080640;28;20988;-57
2023/04/20 02:53:00;;;;;;;12.00;7.73;;;8.20;99.90;;;;;;5080792;28;20446;-57
2023/04/20 02:55:27;;;;;;;10.90;7.87;;;8.20;99.90;;;;;;5080301;28;20545;-58
2023/04/20 02:57:56;;;;;;;10.70;7.10;;;8.20;99.90;;;;;;5080479;28;20516;-56
2023/04/20 03:00:23;;;;;;;11.17;6.60;;;8.20;99.90;;;;;;5080206;28;20577;-57
2023/04/20 03:02:51;;;;;;;11.43;7.60;;;8.20;99.90;;;;;;5081017;28;20473;-57
2023/04/20 03:05:18;;;;;;;11.77;7.43;;;8.30;99.90;;;;;;5080456;28;20452;-57
2023/04/20 03:07:46;;;;;;;10.67;7.13;;;8.30;99.90;;;;;;5080520;28;20496;-56
2023/04/20 03:10:13;;;;;;;13.57;8.60;;;8.20;99.90;;;;;;5080314;28;20455;-57
2023/04/20 03:12:40;;;;;;;9.60;7.67;;;8.30;99.90;;;;;;5080426;28;20473;-57
2023/04/20 03:15:08;;;;;;;17.50;8.40;;;8.20;99.90;;;;;;5080085;28;20541;-56
2023/04/20 03:17:35;;;;;;;16.40;8.77;;;8.30;99.90;;;;;;5080057;28;20469;-58
2023/04/20 03:20:03;;;;;;;11.33;7.80;;;8.30;99.90;;;;;;5080315;28;20551;-56
2023/04/20 03:22:30;;;;;;;14.47;9.10;;;8.30;99.90;;;;;;5080289;28;20915;-57
2023/04/20 03:24:58;;;;;;;12.70;7.23;;;8.30;99.90;;;;;;5080473;28;20466;-58
2023/04/20 03:27:25;;;;;;;12.00;7.13;;;8.30;99.90;;;;;;5080202;28;20939;-57
2023/04/20 03:29:52;;;;;;;12.40;7.30;;;8.30;99.90;;;;;;5080613;28;20443;-55
2023/04/20 03:32:19;;;;;;;9.90;7.40;;;8.30;99.90;;;;;;5079723;28;20967;-55
2023/04/20 03:34:46;;;;;;;11.87;7.87;;;8.30;99.90;;;;;;5080566;28;20515;-57
2023/04/20 03:37:14;;;;;;;9.93;7.27;;;8.40;99.90;;;;;;5079503;28;20489;-54
2023/04/20 03:39:41;;;;;;;15.43;7.93;;;8.40;99.90;;;;;;5079846;28;20474;-57
2023/04/20 03:42:09;;;;;;;14.77;7.17;;;8.40;99.90;;;;;;5079970;28;20557;-57
2023/04/20 03:44:36;;;;;;;11.40;7.67;;;8.30;99.90;;;;;;5080045;28;20507;-56
2023/04/20 03:47:02;;;;;;;8.23;5.80;;;8.40;99.90;;;;;;5079481;28;20473;-58
2023/04/20 03:49:30;;;;;;;12.30;7.40;;;8.40;99.90;;;;;;5079683;28;20498;-57
2023/04/20 03:51:57;;;;;;;9.27;6.77;;;8.30;99.90;;;;;;5079752;28;20538;-56
2023/04/20 03:54:24;;;;;;;16.00;7.87;;;8.30;99.90;;;;;;5079226;28;20834;-54
2023/04/20 03:56:50;;;;;;;13.13;8.50;;;8.30;99.90;;;;;;5080318;28;20461;-58
2023/04/20 03:59:19;;;;;;;13.13;7.97;;;8.30;99.90;;;;;;5079511;28;20569;-57
2023/04/20 04:01:46;;;;;;;17.70;9.30;;;8.30;99.90;;;;;;5079815;28;20512;-58
2023/04/20 04:04:13;;;;;;;13.07;8.67;;;8.30;99.90;;;;;;5079430;28;20496;-58
2023/04/20 04:06:39;;;;;;;14.90;8.47;;;8.40;99.90;;;;;;5079791;28;20481;-55
2023/04/20 04:09:07;;;;;;;13.07;8.33;;;8.40;99.90;;;;;;5079233;28;20460;-57
2023/04/20 04:11:34;;;;;;;14.60;8.27;;;8.40;99.90;;;;;;5079258;28;20474;-56
2023/04/20 04:14:03;;;;;;;12.80;8.83;;;8.40;99.90;;;;;;5079416;28;20515;-56
2023/04/20 04:16:32;;;;;;;14.03;8.47;;;8.40;99.90;;;;;;5079607;28;20820;-55
2023/04/20 04:18:59;;;;;;;12.50;9.73;;;8.40;99.90;;;;;;5079194;28;20517;-57
2023/04/20 04:21:27;;;;;;;27.53;9.27;;;8.40;99.90;;;;;;5079385;28;20512;-56
2023/04/20 04:23:54;;;;;;;13.90;8.10;;;8.40;99.90;;;;;;5079877;28;20454;-55
2023/04/20 04:26:23;;;;;;;11.60;6.70;;;8.30;99.90;;;;;;5078946;28;20549;-56
2023/04/20 04:28:50;;;;;;;9.13;6.30;;;8.30;99.90;;;;;;5079366;28;20451;-57
2023/04/20 04:31:18;;;;;;;13.07;9.70;;;8.40;99.90;;;;;;5078822;28;20507;-56
2023/04/20 04:33:46;;;;;;;11.60;8.00;;;8.30;99.90;;;;;;5079325;28;20459;-58
2023/04/20 04:36:14;;;;;;;10.40;6.53;;;8.30;99.90;;;;;;5079128;28;20529;-57
2023/04/20 04:38:41;;;;;;;11.40;6.90;;;8.40;99.90;;;;;;5079034;28;20493;-53
2023/04/20 04:41:08;;;;;;;8.43;5.77;;;8.30;99.90;;;;;;5079516;28;20451;-58
2023/04/20 04:43:36;;;;;;;9.47;6.90;;;8.30;99.90;;;;;;5079466;28;20549;-57
2023/04/20 04:46:08;;;;;;;13.10;6.50;;;8.40;99.90;;;;;;5079435;28;20446;-54
2023/04/20 04:48:35;;;;;;;8.60;6.30;;;8.30;99.90;;;;;;5079000;28;20469;-56
2023/04/20 04:51:04;;;;;;;11.43;7.90;;;8.30;99.90;;;;;;5078621;28;20424;-52
2023/04/20 04:53:30;;;;;;;11.30;8.30;;;8.30;99.90;;;;;;5079395;28;20470;-58
2023/04/20 04:55:57;;;;;;;13.50;7.33;;;8.40;99.90;;;;;;5079883;28;20942;-57
2023/04/20 04:58:24;;;;;;;12.93;7.30;;;8.30;99.90;;;;;;5078913;28;20447;-53
2023/04/20 05:00:51;;;;;;;12.23;7.27;;;8.30;99.90;;;;;;5079822;28;20565;-56
2023/04/20 05:03:18;;;;;;;14.63;7.13;;;8.30;99.90;;;;;;5080089;28;20530;-53
2023/04/20 05:05:45;;;;;;;11.67;7.67;;;8.30;99.90;;;;;;5080033;28;20502;-57
2023/04/20 05:08:13;;;;;;;11.30;7.10;;;8.30;99.90;;;;;;5079709;28;20466;-57
2023/04/20 05:10:40;;;;;;;13.63;8.53;;;8.40;99.90;;;;;;5079392;28;20553;-57
2023/04/20 05:13:07;;;;;;;11.23;6.57;;;8.40;99.90;;;;;;5079647;28;20539;-58
2023/04/20 05:15:34;;;;;;;15.30;7.90;;;8.50;99.90;;;;;;5079242;28;20478;-58
2023/04/20 05:18:01;;;;;;;14.00;7.57;;;8.50;99.90;;;;;;5079087;28;20430;-57
2023/04/20 05:20:28;;;;;;;11.80;7.60;;;8.50;99.90;;;;;;5079099;28;20490;-57
2023/04/20 05:22:55;;;;;;;15.23;8.10;;;8.50;99.90;;;;;;5078922;28;20427;-58
2023/04/20 05:25:24;;;;;;;17.27;8.30;;;8.50;99.90;;;;;;5092354;28;20446;-57
2023/04/20 05:27:51;;;;;;;16.40;9.10;;;8.50;99.90;;;;;;5093587;28;20472;-54
2023/04/20 05:30:18;;;;;;;16.23;8.67;;;8.50;99.90;;;;;;5092937;28;20439;-57
2023/04/20 05:32:44;;;;;;;10.10;7.47;;;8.60;99.90;;;;;;5092281;28;20447;-54
2023/04/20 05:35:11;;;;;;;13.80;9.00;;;8.60;99.90;;;;;;5092997;28;20438;-56
2023/04/20 05:37:38;;;;;;;15.63;9.07;;;8.50;99.90;;;;;;5092694;28;20485;-53
2023/04/20 05:40:06;;;;;;;15.30;9.40;;;8.60;99.90;;;;;;5092895;28;20524;-58
2023/04/20 05:42:37;;;;;;;16.10;9.30;;;8.60;99.90;;;;;;5092995;28;20442;-56
2023/04/20 05:45:04;;;;;;;22.20;8.87;;;8.60;99.90;;;;;;5093211;28;20438;-56
2023/04/20 05:47:31;;;;;;;14.70;9.10;;;8.70;99.90;;;;;;5091752;28;20470;-55
2023/04/20 05:49:58;;;;;;;17.43;10.50;;;8.70;99.90;;;;;;5091248;28;20458;-58
2023/04/20 05:52:25;;;;;;;14.97;9.00;;;8.70;99.90;;;;;;5091384;28;20446;-59
2023/04/20 05:54:52;;;;;;;14.73;9.40;;;8.80;99.90;;;;;;5091048;28;20466;-55
2023/04/20 05:57:19;;;;;;;11.73;8.17;;;8.90;99.90;;;;;;5091206;28;21027;-53
2023/04/20 05:59:47;;;;;;;17.30;9.17;;;8.90;99.90;;;;;;5091436;28;20502;-57
2023/04/20 06:02:14;;;;;;;17.23;8.80;;;8.90;99.90;;;;;;5094651;28;20490;-55
2023/04/20 06:04:42;;;;;;;14.60;9.63;;;8.80;99.90;;;;;;5095239;28;20453;-57
2023/04/20 06:07:08;;;;;;;19.77;11.00;;;8.90;99.90;;;;;;5094961;28;20500;-58
2023/04/20 06:09:35;;;;;;;16.77;9.37;;;9.00;99.90;;;;;;5094905;28;20513;-55
2023/04/20 06:12:02;;;;;;;16.67;9.80;;;9.00;99.90;;;;;;5095072;28;20486;-55
2023/04/20 06:14:29;;;;;;;19.20;10.90;;;9.00;99.90;;;;;;5093229;28;20484;-58
2023/04/20 06:16:57;;;;;;;16.93;11.00;;;9.00;99.90;;;;;;5086334;28;20498;-57
2023/04/20 06:19:24;;;;;;;17.97;11.43;;;9.00;99.90;;;;;;5087269;28;20541;-58
2023/04/20 06:21:51;;;;;;;21.43;10.70;;;9.10;99.90;;;;;;5086502;28;20509;-57
2023/04/20 06:24:18;;;;;;;16.47;10.23;;;9.10;99.90;;;;;;5082662;28;20441;-57
2023/04/20 06:26:45;;;;;;;14.90;10.27;;;9.20;99.90;;;;;;5086417;28;20462;-58
2023/04/20 06:29:12;;;;;;;15.90;9.90;;;9.20;99.90;;;;;;5085683;28;20494;-56
2023/04/20 06:31:38;;;;;;;22.00;12.07;;;9.20;99.90;;;;;;5087403;28;20450;-57
2023/04/20 06:34:07;;;;;;;14.67;9.60;;;9.20;99.90;;;;;;5089578;28;20450;-55
2023/04/20 06:36:33;;;;;;;14.93;9.30;;;9.20;99.90;;;;;;5097833;28;20438;-56
2023/04/20 06:39:00;;;;;;;13.60;9.27;;;9.10;99.90;;;;;;5088270;28;20497;-57
2023/04/20 06:41:27;;;;;;;17.60;10.87;;;9.20;99.90;;;;;;5093253;28;20538;-55
2023/04/20 06:43:54;;;;;;;21.20;10.17;;;9.20;99.90;;;;;;5098125;28;20435;-55
2023/04/20 06:46:21;;;;;;;18.13;11.00;;;9.20;99.90;;;;;;5098748;28;20466;-55
2023/04/20 06:48:48;;;;;;;20.67;10.90;;;9.20;99.90;;;;;;5099049;28;20453;-55
2023/04/20 06:51:16;;;;;;;14.03;9.73;;;9.30;99.90;;;;;;5097158;28;20449;-55
2023/04/20 06:53:43;;;;;;;17.07;9.50;;;9.30;99.90;;;;;;5096387;28;20466;-54
2023/04/20 06:56:11;;;;;;;17.20;10.20;;;9.40;99.90;;;;;;5096715;28;20470;-55
2023/04/20 06:58:38;;;;;;;14.40;9.40;;;9.40;99.90;;;;;;5096630;28;20526;-56
2023/04/20 07:01:05;;;;;;;15.67;9.50;;;9.50;99.90;;;;;;5096659;28;20473;-57
2023/04/20 07:03:32;;;;;;;14.60;8.17;;;9.60;99.90;;;;;;5093963;28;20466;-54
2023/04/20 07:05:59;;;;;;;18.00;9.30;;;9.70;99.90;;;;;;5096994;28;20431;-51
2023/04/20 07:08:27;;;;;;;14.03;9.47;;;9.70;99.90;;;;;;5095049;28;20465;-56
2023/04/20 07:10:54;;;;;;;16.20;10.43;;;9.90;99.90;;;;;;5087647;28;20489;-55
2023/04/20 07:13:21;;;;;;;17.17;10.07;;;10.10;99.90;;;;;;5095998;28;20450;-55
2023/04/20 07:15:48;;;;;;;18.63;10.07;;;10.20;99.90;;;;;;5092094;28;20525;-57
2023/04/20 07:18:15;;;;;;;18.63;10.07;;;10.40;99.90;;;;;;5081507;28;20472;-58
2023/04/20 07:20:42;;;;;;;17.60;9.80;;;10.50;99.90;;;;;;5080907;28;20573;-58
2023/04/20 07:23:08;;;;;;;16.03;10.40;;;10.50;99.90;;;;;;5087833;28;20490;-51
2023/04/20 07:25:37;;;;;;;17.00;9.07;;;10.50;99.90;;;;;;5086394;28;20474;-57
2023/04/20 07:28:04;;;;;;;19.43;10.67;;;10.50;99.90;;;;;;5081791;28;20466;-59
2023/04/20 07:30:31;;;;;;;16.00;8.43;;;10.70;99.90;;;;;;5081496;28;20423;-56
2023/04/20 07:32:58;;;;;;;13.23;9.30;;;10.70;99.90;;;;;;5082085;28;20457;-56
2023/04/20 07:35:25;;;;;;;12.70;8.40;;;10.70;99.90;;;;;;5083650;28;20487;-54
2023/04/20 07:37:52;;;;;;;17.93;11.03;;;10.80;99.90;;;;;;5084759;28;20439;-57
2023/04/20 07:40:18;;;;;;;16.20;10.03;;;10.80;99.90;;;;;;5088148;28;20479;-55
2023/04/20 07:42:47;;;;;;;21.70;10.20;;;10.80;99.90;;;;;;5086279;28;20443;-58
2023/04/20 07:45:14;;;;;;;13.90;9.77;;;10.80;99.90;;;;;;5092746;28;20529;-53
2023/04/20 07:47:42;;;;;;;17.97;10.00;;;10.90;99.90;;;;;;5097094;28;20442;-58
2023/04/20 07:50:10;;;;;;;16.53;10.43;;;10.90;99.90;;;;;;5092134;28;20820;-59
2023/04/20 07:52:37;;;;;;;15.33;8.90;;;10.90;99.90;;;;;;5078330;28;20493;-56
2023/04/20 07:55:05;;;;;;;24.80;11.90;;;10.90;99.90;;;;;;5080391;28;20462;-57
2023/04/20 07:57:32;;;;;;;17.23;9.77;;;11.00;99.90;;;;;;5088096;28;20537;-57
2023/04/20 08:00:00;;;;;;;18.20;11.55;;;11.00;99.90;;;;;;5083147;28;20477;-58
2023/04/20 08:02:27;;;;;;;17.53;9.60;;;11.10;99.90;;;;;;5083310;28;20200;-60
2023/04/20 08:04:54;;;;;;;15.67;9.60;;;11.20;99.90;;;;;;5084857;28;20534;-60
2023/04/20 08:07:21;;;;;;;19.53;9.03;;;11.20;99.90;;;;;;5084485;28;20438;-58
2023/04/20 08:09:48;;;;;;;13.17;9.17;;;11.20;99.90;;;;;;5087663;28;20485;-59
2023/04/20 08:12:14;;;;;;;12.63;8.37;;;11.40;99.90;;;;;;5089074;28;20442;-58
2023/04/20 08:14:41;;;;;;;16.50;9.20;;;11.40;99.90;;;;;;5085583;28;20502;-61
2023/04/20 08:17:10;;;;;;;18.30;9.90;;;11.40;99.90;;;;;;5083651;28;20488;-60
2023/04/20 08:19:37;;;;;;;12.40;8.57;;;11.50;99.90;;;;;;5082682;28;20466;-60
2023/04/20 08:22:05;;;;;;;15.17;9.30;;;11.60;99.90;;;;;;5082226;28;20506;-60
2023/04/20 08:24:31;;;;;;;12.20;8.73;;;11.70;99.90;;;;;;5085229;28;20522;-59
2023/04/20 08:26:59;;;;;;;16.43;8.40;;;12.10;99.90;;;;;;5084744;28;20466;-59
2023/04/20 08:29:25;;;;;;;11.97;8.27;;;12.50;99.90;;;;;;5083343;28;20438;-60
2023/04/20 08:31:52;;;;;;;13.87;8.83;;;12.70;99.90;;;;;;5082052;28;20509;-61
2023/04/20 08:34:21;;;;;;;13.13;8.63;;;12.70;99.90;;;;;;5082537;28;20446;-60
2023/04/20 08:36:48;;;;;;;12.50;9.70;;;12.50;99.90;;;;;;5081065;28;20506;-61
2023/04/20 08:39:22;;;;;;;17.90;10.33;;;12.30;99.90;;;;;;5081403;28;20446;-61
2023/04/20 08:41:52;;;;;;;15.83;10.77;;;12.20;99.90;;;;;;5076721;28;20561;-59
2023/04/20 08:44:19;;;;;;;17.83;10.10;;;11.90;99.90;;;;;;5076423;28;20446;-58
2023/04/20 08:46:47;;;;;;;15.93;9.80;;;11.70;99.90;;;;;;5077153;28;20553;-57
2023/04/20 08:49:15;;;;;;;15.30;10.20;;;11.60;99.90;;;;;;5077135;28;20442;-62
2023/04/20 08:51:45;;;;;;;12.40;9.63;;;11.40;99.90;;;;;;5077101;28;20451;-57
2023/04/20 08:54:13;;;;;;;18.30;8.90;;;11.30;99.90;;;;;;5077291;28;20450;-60
2023/04/20 08:56:41;;;;;;;18.83;9.97;;;11.10;99.90;;;;;;5076948;28;20508;-61
2023/04/20 08:59:09;;;;;;;14.33;8.97;;;11.00;99.90;;;;;;5080499;28;20485;-60
2023/04/20 09:01:36;;;;;;;14.77;8.57;;;10.90;99.90;;;;;;5077296;28;20496;-59
2023/04/20 09:04:17;;;;;;;21.10;10.17;;;10.80;99.90;;;;;;5077038;28;20447;-60
2023/04/20 09:06:46;;;;;;;15.00;9.73;;;10.70;99.90;;;;;;5077182;28;20493;-61
2023/04/20 09:09:13;;;;;;;15.47;9.30;;;10.70;99.90;;;;;;5077369;28;20538;-56
2023/04/20 09:11:40;;;;;;;18.30;10.00;;;10.60;99.90;;;;;;5076268;28;20519;-59
2023/04/20 09:14:11;;;;;;;18.80;9.63;;;10.60;99.90;;;;;;5076987;28;20455;-60
2023/04/20 09:16:39;;;;;;;16.77;9.53;;;10.50;99.90;;;;;;5077098;28;20547;-61
2023/04/20 09:19:06;;;;;;;15.00;9.40;;;10.50;99.90;;;;;;5076976;28;20450;-60
2023/04/20 09:21:33;;;;;;;19.60;9.80;;;10.50;99.90;;;;;;5076480;28;20518;-55
2023/04/20 09:24:05;;;;;;;17.33;10.90;;;10.50;99.90;;;;;;5077125;28;20506;-60
2023/04/20 09:26:33;;;;;;;20.30;10.27;;;10.50;99.90;;;;;;5076824;28;20500;-55
2023/04/20 09:29:00;;;;;;;17.73;10.57;;;10.50;99.90;;;;;;5090296;28;20506;-59
2023/04/20 09:31:27;;;;;;;18.00;10.20;;;10.50;99.90;;;;;;5078334;28;20545;-61
2023/04/20 09:33:59;;;;;;;21.13;11.27;;;10.50;99.90;;;;;;5076785;28;20443;-61
2023/04/20 09:36:36;;;;;;;14.10;9.70;;;10.60;99.90;;;;;;5076416;28;20466;-58
2023/04/20 09:39:08;;;;;;;17.20;9.97;;;10.60;99.90;;;;;;5076964;28;20457;-58
2023/04/20 09:41:36;;;;;;;15.30;9.07;;;10.70;99.90;;;;;;5056108;28;20527;-59
2023/04/20 09:44:03;;;;;;;14.20;9.10;;;10.90;99.90;;;;;;5056480;28;20766;-60
2023/04/20 09:46:32;;;;;;;16.23;9.57;;;11.10;99.90;;;;;;5054455;28;20543;-60
2023/04/20 09:49:00;;;;;;;16.03;9.63;;;11.20;99.90;;;;;;5059227;28;20489;-59
2023/04/20 09:51:27;;;;;;;15.93;9.57;;;11.50;99.90;;;;;;5057321;28;20450;-59
2023/04/20 09:53:56;;;;;;;16.77;9.50;;;11.70;99.90;;;;;;5056583;28;20443;-60
2023/04/20 09:56:24;;;;;;;14.17;8.27;;;11.90;99.90;;;;;;5056395;28;20531;-62
2023/04/20 09:58:51;;;;;;;11.90;9.07;;;12.00;99.90;;;;;;5055801;28;20439;-62
2023/04/20 10:01:19;;;;;;;12.80;8.50;;;12.20;99.90;;;;;;5056331;28;20590;-58
2023/04/20 10:03:46;;;;;;;14.97;10.10;;;12.30;99.90;;;;;;5055681;28;20481;-64
2023/04/20 10:06:24;;;;;;;15.60;9.50;;;12.50;99.90;;;;;;5054712;28;20447;-60
2023/04/20 10:08:51;;;;;;;13.57;9.30;;;12.70;99.90;;;;;;5053911;28;20435;-58
2023/04/20 10:11:27;;;;;;;16.13;9.00;;;13.00;99.90;;;;;;5053707;28;20455;-60
2023/04/20 10:13:55;;;;;;;12.70;7.57;;;13.30;99.90;;;;;;5069742;28;20545;-59
2023/04/20 10:16:22;;;;;;;12.30;7.67;;;13.60;99.90;;;;;;5074481;28;20454;-61
2023/04/20 10:19:01;;;;;;;11.80;8.07;;;14.10;99.90;;;;;;5074932;28;20490;-61
2023/04/20 10:21:28;;;;;;;16.93;9.20;;;14.40;99.90;;;;;;5076155;28;20474;-60
2023/04/20 10:23:57;;;;;;;14.97;7.93;;;14.30;99.90;;;;;;5079752;28;20533;-60
2023/04/20 10:26:35;;;;;;;14.23;8.17;;;14.30;99.90;;;;;;5080581;28;20518;-58
2023/04/20 10:29:02;;;;;;;10.20;7.57;;;14.10;99.90;;;;;;5079009;28;20462;-59
2023/04/20 10:31:35;;;;;;;9.83;7.77;;;14.00;99.90;;;;;;5079667;28;20465;-60
2023/04/20 10:34:02;;;;;;;15.33;8.23;;;13.90;99.90;;;;;;5079730;28;20478;-59
2023/04/20 10:36:31;;;;;;;13.47;8.67;;;13.80;99.90;;;;;;5079708;28;20542;-59
2023/04/20 10:39:00;;;;;;;9.87;7.97;;;14.10;99.90;;;;;;5079643;28;20535;-57
2023/04/20 10:41:28;;;;;;;10.30;8.00;;;14.30;99.90;;;;;;5079239;28;20830;-61
2023/04/20 10:43:55;;;;;;;11.00;7.90;;;14.50;99.90;;;;;;5078953;28;20505;-61
2023/04/20 10:46:24;;;;;;;10.10;7.60;;;15.00;99.90;;;;;;5078837;28;20503;-60
2023/04/20 10:48:54;;;;;;;10.07;7.60;;;15.50;99.90;;;;;;5081771;28;20493;-59
2023/04/20 10:51:22;;;;;;;16.43;8.20;;;16.00;99.90;;;;;;5081023;28;20537;-56
2023/04/20 10:53:59;;;;;;;12.70;8.03;;;16.40;99.90;;;;;;5084336;28;20557;-59
2023/04/20 10:56:26;;;;;;;12.27;7.90;;;16.70;99.90;;;;;;5082353;28;20473;-59
2023/04/20 10:58:54;;;;;;;9.73;7.73;;;17.00;99.90;;;;;;5082468;28;20470;-58
2023/04/20 11:01:21;;;;;;;12.57;8.10;;;17.00;99.90;;;;;;5081438;28;20502;-61
2023/04/20 11:03:51;;;;;;;8.37;7.37;;;16.70;99.90;;;;;;5081613;28;20471;-59
2023/04/20 11:06:18;;;;;;;8.50;6.50;;;16.50;99.90;;;;;;5082314;28;20923;-59
2023/04/20 11:08:45;;;;;;;9.13;7.70;;;16.40;99.90;;;;;;5081869;28;20525;-58
2023/04/20 11:11:19;;;;;;;12.73;8.10;;;16.20;99.90;;;;;;5081568;28;20429;-59
2023/04/20 11:13:47;;;;;;;11.53;8.77;;;16.10;99.90;;;;;;5080654;28;20844;-58
2023/04/20 11:16:17;;;;;;;13.77;7.90;;;15.90;99.90;;;;;;5090739;28;20454;-58
2023/04/20 11:18:53;;;;;;;10.73;9.00;;;15.70;99.90;;;;;;5081193;28;20533;-58
2023/04/20 11:21:22;;;;;;;11.07;8.87;;;15.50;99.90;;;;;;5089833;28;20473;-57
2023/04/20 11:23:49;;;;;;;10.67;8.10;;;15.40;99.90;;;;;;5084996;28;20481;-58
2023/04/20 11:26:16;;;;;;;13.40;9.10;;;15.20;99.90;;;;;;5082594;28;20959;-57
2023/04/20 11:28:53;;;;;;;13.83;9.40;;;14.90;99.90;;;;;;5082421;28;20446;-54
2023/04/20 11:31:22;;;;;;;15.80;10.03;;;14.80;99.90;;;;;;5081460;28;20446;-59
2023/04/20 11:33:49;;;;;;;14.43;8.30;;;14.50;99.90;;;;;;5081735;28;20446;-60
2023/04/20 11:36:19;;;;;;;12.67;9.70;;;14.50;99.90;;;;;;5081367;28;20476;-59
2023/04/20 11:38:46;;;;;;;16.70;9.97;;;14.40;99.90;;;;;;5081873;28;20529;-58
2023/04/20 11:41:13;;;;;;;13.47;9.33;;;14.50;99.90;;;;;;5083804;28;20509;-60
2023/04/20 11:43:40;;;;;;;11.63;8.07;;;14.50;99.90;;;;;;5089058;28;20478;-58
2023/04/20 11:46:14;;;;;;;15.90;10.00;;;14.60;99.90;;;;;;5087799;28;20486;-59
2023/04/20 11:48:42;;;;;;;12.20;9.33;;;14.70;99.90;;;;;;5084505;28;20432;-59
2023/04/20 11:51:09;;;;;;;14.20;9.97;;;14.90;99.90;;;;;;5083851;28;20588;-59
2023/04/20 11:53:36;;;;;;;12.63;8.87;;;15.20;99.90;;;;;;5085634;28;20477;-60
2023/04/20 11:56:04;;;;;;;11.87;9.20;;;15.40;99.90;;;;;;5084247;28;20463;-60
2023/04/20 11:58:31;;;;;;;14.53;9.53;;;15.60;99.90;;;;;;5084466;28;20530;-60
2023/04/20 12:00:58;;;;;;;18.37;10.50;;;15.80;99.90;;;;;;5084784;28;20474;-58
2023/04/20 12:03:25;;;;;;;13.83;9.13;;;15.90;99.90;;;;;;5083809;28;20450;-60
2023/04/20 12:05:54;;;;;;;14.60;8.60;;;15.90;99.90;;;;;;5084444;28;20478;-60
2023/04/20 12:08:21;;;;;;;14.07;10.33;;;15.90;99.90;;;;;;5083453;28;20477;-59
2023/04/20 12:10:47;;;;;;;15.17;8.83;;;15.90;99.90;;;;;;5084101;28;20481;-57
2023/04/20 12:13:14;;;;;;;13.97;9.40;;;15.90;99.90;;;;;;5082852;28;20463;-60
2023/04/20 12:15:41;;;;;;;15.23;10.30;;;15.80;99.90;;;;;;5079958;28;20475;-58
2023/04/20 12:18:09;;;;;;;13.80;9.93;;;15.80;99.90;;;;;;5078960;28;20485;-60
2023/04/20 12:20:36;;;;;;;13.67;9.07;;;15.80;99.90;;;;;;5081095;28;20446;-58
2023/04/20 12:23:05;;;;;;;13.40;9.83;;;15.70;99.90;;;;;;5080121;28;20466;-59
2023/04/20 12:25:31;;;;;;;11.63;8.80;;;15.70;99.90;;;;;;5081471;28;20438;-59
2023/04/20 12:28:00;;;;;;;12.10;8.53;;;15.70;99.90;;;;;;5091318;28;20895;-59
2023/04/20 12:30:27;;;;;;;15.27;10.20;;;15.70;99.90;;;;;;5082440;28;20461;-63
2023/04/20 12:32:54;;;;;;;16.83;12.00;;;15.70;99.90;;;;;;5082465;28;20986;-59
2023/04/20 12:35:21;;;;;;;12.10;9.60;;;15.60;99.90;;;;;;5078310;28;20458;-58
2023/04/20 12:37:48;;;;;;;13.57;9.80;;;15.60;99.90;;;;;;5078898;28;20522;-57
2023/04/20 12:40:16;;;;;;;17.23;10.83;;;15.70;99.90;;;;;;5078379;28;20502;-55
2023/04/20 12:42:43;;;;;;;15.73;11.30;;;15.70;99.90;;;;;;5083152;28;20486;-60
2023/04/20 12:45:10;;;;;;;14.37;10.27;;;15.80;99.90;;;;;;5079574;28;20469;-59